East Genoa, New York
Current Conditions -  °F | °C
As of 3:35 AM on Thursday 25 Dec 2014 (Local Time) from KN03 Reporting Station
Overcast Overcast  
Wind Chill: 42°   Ceiling: 4300
Heat Index: 48°   Visibility: 10mi
Dew Point: 41°   Wind: 16mph
Humidity: 76%   Direction: 230°SW
Pressure: 29.52"   Gusts: 24mph
Location:  42.6513°N, 76.421°W
Report Text: KN03 250835Z AUTO 23014G21KT 10SM SCT035 BKN043 OVC075 09/05 A2952 RMK AO2
Loading
Personal Weather Stations






























Interactive Weather Map New forecast layout! Learn more

10-Day Weather Forecast

Advertisements
Track Severe Weather on mobile